createdAt,value
2019-06-27T00:00:53.083Z,19.7
2019-06-27T00:01:54.459Z,19.8
2019-06-27T00:02:55.835Z,19.7
2019-06-27T00:03:57.202Z,19.6
2019-06-27T00:04:58.573Z,19.5
2019-06-27T00:05:59.944Z,19.5
2019-06-27T00:07:01.319Z,19.5
2019-06-27T00:08:02.696Z,19.4
2019-06-27T00:09:04.074Z,19.4
2019-06-27T00:10:05.437Z,19.4
2019-06-27T00:11:06.823Z,19.5
2019-06-27T00:12:08.179Z,19.4
2019-06-27T00:13:09.551Z,19.4
2019-06-27T00:14:10.931Z,19.4
2019-06-27T00:15:12.295Z,19.2
2019-06-27T00:16:13.669Z,19.4
2019-06-27T00:17:15.058Z,19.4
2019-06-27T00:18:16.416Z,19.4
2019-06-27T00:19:17.791Z,19.3
2019-06-27T00:20:19.162Z,19.2
2019-06-27T00:21:20.537Z,19.2
2019-06-27T00:22:21.906Z,19.2
2019-06-27T00:23:23.279Z,19.1
2019-06-27T00:24:24.655Z,19.2
2019-06-27T00:25:26.022Z,19.1
2019-06-27T00:26:27.394Z,19.2
2019-06-27T00:27:28.781Z,19.2
2019-06-27T00:28:30.140Z,19.2
2019-06-27T00:29:31.524Z,19.2
2019-06-27T00:30:32.902Z,19.1
2019-06-27T00:31:34.269Z,19.1
2019-06-27T00:32:35.639Z,19.2
2019-06-27T00:33:37.008Z,19.2
2019-06-27T00:34:38.380Z,19.1
2019-06-27T00:35:39.752Z,19.0
2019-06-27T00:36:41.124Z,19.0
2019-06-27T00:37:42.497Z,19.0
2019-06-27T00:38:43.870Z,19.0
2019-06-27T00:39:45.240Z,18.9
2019-06-27T00:40:46.611Z,19.0
2019-06-27T00:41:47.981Z,19.0
2019-06-27T00:42:49.355Z,18.9
2019-06-27T00:43:50.724Z,18.9
2019-06-27T00:44:52.101Z,18.8
2019-06-27T00:45:53.472Z,18.8
2019-06-27T00:46:54.842Z,18.9
2019-06-27T00:47:56.211Z,18.8
2019-06-27T00:48:57.584Z,18.8
2019-06-27T00:49:58.956Z,18.7
2019-06-27T00:51:00.329Z,18.7
2019-06-27T00:52:01.768Z,18.7
2019-06-27T00:53:03.042Z,18.7
2019-06-27T00:54:04.409Z,18.7
2019-06-27T00:55:05.777Z,18.6
2019-06-27T00:56:07.162Z,18.7
2019-06-27T00:57:14.139Z,18.7
2019-06-27T00:58:09.851Z,18.6
2019-06-27T00:59:11.230Z,18.6
2019-06-27T01:00:12.609Z,18.6
2019-06-27T01:01:13.963Z,18.6
2019-06-27T01:02:15.344Z,18.7
2019-06-27T01:03:16.710Z,18.7
2019-06-27T01:04:18.086Z,18.7
2019-06-27T01:05:19.456Z,18.7
2019-06-27T01:06:20.827Z,18.6
2019-06-27T01:07:22.199Z,18.6
2019-06-27T01:08:23.575Z,18.4
2019-06-27T01:09:24.944Z,18.4
2019-06-27T01:10:26.313Z,18.4
2019-06-27T01:11:27.683Z,18.4
2019-06-27T01:12:29.055Z,18.4
2019-06-27T01:13:30.428Z,18.4
2019-06-27T01:14:31.804Z,18.4
2019-06-27T01:15:33.172Z,18.4
2019-06-27T01:16:34.544Z,18.3
2019-06-27T01:17:35.924Z,18.4
2019-06-27T01:18:37.289Z,18.4
2019-06-27T01:19:38.745Z,18.4
2019-06-27T01:20:40.039Z,18.4
2019-06-27T01:21:41.415Z,18.4
2019-06-27T01:22:42.784Z,18.5
2019-06-27T01:23:45.143Z,18.5
2019-06-27T01:24:45.489Z,18.4
2019-06-27T01:25:46.859Z,18.4
2019-06-27T01:26:48.230Z,18.4
2019-06-27T01:27:49.602Z,18.4
2019-06-27T01:28:50.974Z,18.4
2019-06-27T01:29:52.342Z,18.2
2019-06-27T01:30:53.751Z,18.3
2019-06-27T01:31:55.116Z,18.4
2019-06-27T01:32:56.487Z,18.3
2019-06-27T01:33:57.860Z,18.3
2019-06-27T01:34:59.249Z,18.2
2019-06-27T01:36:00.605Z,18.4
2019-06-27T01:37:02.070Z,18.4
2019-06-27T01:38:03.314Z,18.4
2019-06-27T01:39:04.681Z,18.4
2019-06-27T01:40:06.054Z,18.4
2019-06-27T01:41:07.425Z,18.5
2019-06-27T01:42:08.799Z,18.4
2019-06-27T01:43:10.168Z,18.4
2019-06-27T01:44:11.537Z,18.5
2019-06-27T01:45:12.908Z,18.5
2019-06-27T01:46:14.282Z,18.5
2019-06-27T01:47:15.649Z,18.4
2019-06-27T01:48:17.022Z,18.5
2019-06-27T01:49:18.395Z,18.5
2019-06-27T01:50:19.766Z,18.5
2019-06-27T01:51:21.145Z,18.4
2019-06-27T01:52:22.512Z,18.5
2019-06-27T01:53:23.877Z,18.5
2019-06-27T01:54:25.259Z,18.6
2019-06-27T01:55:26.618Z,18.7
2019-06-27T01:56:27.989Z,18.6
2019-06-27T01:57:42.338Z,18.7
2019-06-27T01:58:30.700Z,18.6
2019-06-27T01:59:32.073Z,18.7
2019-06-27T02:00:33.442Z,18.7
2019-06-27T02:01:34.811Z,18.7
2019-06-27T02:02:36.189Z,18.6
2019-06-27T02:03:37.574Z,18.6
2019-06-27T02:04:38.928Z,18.7
2019-06-27T02:05:40.301Z,18.7
2019-06-27T02:06:41.673Z,18.5
2019-06-27T02:07:43.041Z,18.6
2019-06-27T02:08:44.412Z,18.7
2019-06-27T02:09:45.783Z,18.6
2019-06-27T02:10:47.155Z,18.5
2019-06-27T02:11:48.527Z,18.5
2019-06-27T02:12:49.898Z,18.5
2019-06-27T02:13:51.266Z,18.5
2019-06-27T02:14:52.635Z,18.6
2019-06-27T02:15:54.016Z,18.6
2019-06-27T02:16:55.379Z,18.6
2019-06-27T02:17:56.756Z,18.7
2019-06-27T02:18:58.128Z,18.7
2019-06-27T02:19:59.504Z,18.7
2019-06-27T02:21:00.874Z,18.7
2019-06-27T02:22:02.289Z,18.5
2019-06-27T02:23:03.578Z,18.7
2019-06-27T02:24:04.949Z,18.6
2019-06-27T02:25:06.321Z,18.5
2019-06-27T02:26:07.694Z,18.4
2019-06-27T02:27:09.066Z,18.5
2019-06-27T02:28:10.437Z,18.4
2019-06-27T02:29:11.807Z,18.4
2019-06-27T02:30:13.179Z,18.4
2019-06-27T02:31:14.551Z,18.5
2019-06-27T02:32:15.988Z,18.4
2019-06-27T02:33:17.297Z,18.4
2019-06-27T02:34:18.667Z,18.5
2019-06-27T02:35:20.035Z,18.4
2019-06-27T02:36:21.415Z,18.5
2019-06-27T02:37:22.779Z,18.4
2019-06-27T02:38:24.179Z,18.5
2019-06-27T02:39:25.534Z,18.5
2019-06-27T02:40:26.897Z,18.5
2019-06-27T02:41:28.264Z,18.4
2019-06-27T02:42:29.653Z,18.4
2019-06-27T02:43:31.004Z,18.5
2019-06-27T02:44:32.377Z,18.5
2019-06-27T02:45:33.744Z,18.5
2019-06-27T02:46:35.125Z,18.4
2019-06-27T02:47:36.493Z,18.5
2019-06-27T02:48:37.861Z,18.5
2019-06-27T02:49:39.234Z,18.5
2019-06-27T02:50:40.658Z,18.6
2019-06-27T02:51:41.948Z,18.6
2019-06-27T02:52:43.320Z,18.6
2019-06-27T02:53:44.695Z,18.6
2019-06-27T02:54:46.064Z,18.7
2019-06-27T02:55:47.437Z,18.7
2019-06-27T02:56:48.823Z,18.7
2019-06-27T02:57:50.191Z,18.7
2019-06-27T02:58:51.565Z,18.8
2019-06-27T02:59:52.946Z,18.8
2019-06-27T03:00:54.310Z,18.7
2019-06-27T03:01:55.683Z,18.6
2019-06-27T03:02:57.052Z,18.7
2019-06-27T03:03:58.426Z,18.5
2019-06-27T03:04:59.799Z,18.6
2019-06-27T03:06:01.169Z,18.6
2019-06-27T03:07:02.550Z,18.5
2019-06-27T03:08:04.991Z,18.5
2019-06-27T03:09:06.333Z,18.6
2019-06-27T03:10:07.703Z,18.5
2019-06-27T03:11:09.076Z,18.5
2019-06-27T03:12:10.452Z,18.6
2019-06-27T03:13:11.828Z,18.5
2019-06-27T03:14:13.195Z,18.5
2019-06-27T03:15:14.567Z,18.6
2019-06-27T03:16:15.945Z,18.6
2019-06-27T03:17:17.319Z,18.7
2019-06-27T03:18:18.693Z,18.7
2019-06-27T03:19:20.076Z,18.7
2019-06-27T03:20:21.440Z,18.7
2019-06-27T03:21:22.821Z,18.7
2019-06-27T03:22:24.191Z,18.7
2019-06-27T03:23:25.572Z,18.7
2019-06-27T03:24:26.938Z,18.6
2019-06-27T03:25:28.321Z,18.7
2019-06-27T03:26:29.688Z,18.5
2019-06-27T03:27:31.062Z,18.6
2019-06-27T03:28:50.703Z,18.5
2019-06-27T03:29:33.774Z,18.5
2019-06-27T03:30:35.148Z,18.5
2019-06-27T03:31:36.520Z,18.5
2019-06-27T03:32:37.897Z,18.5
2019-06-27T03:33:39.277Z,18.6
2019-06-27T03:34:40.644Z,18.4
2019-06-27T03:35:42.025Z,18.5
2019-06-27T03:36:43.399Z,18.5
2019-06-27T03:37:44.777Z,18.4
2019-06-27T03:38:46.149Z,18.4
2019-06-27T03:39:47.526Z,18.5
2019-06-27T03:40:48.899Z,18.5
2019-06-27T03:41:50.273Z,18.5
2019-06-27T03:42:51.650Z,18.5
2019-06-27T03:43:53.026Z,18.5
2019-06-27T03:44:54.405Z,18.6
2019-06-27T03:45:55.833Z,18.6
2019-06-27T03:46:57.145Z,18.6
2019-06-27T03:47:58.521Z,18.4
2019-06-27T03:48:59.895Z,18.5
2019-06-27T03:50:01.283Z,18.4
2019-06-27T03:51:02.647Z,18.5
2019-06-27T03:52:04.024Z,18.5
2019-06-27T03:53:05.392Z,18.4
2019-06-27T03:54:06.769Z,18.4
2019-06-27T03:55:08.148Z,18.4
2019-06-27T03:56:09.522Z,18.4
2019-06-27T03:57:10.897Z,18.4
2019-06-27T03:58:12.276Z,18.4
2019-06-27T03:59:13.955Z,18.5
2019-06-27T04:00:14.994Z,18.4
2019-06-27T04:01:16.365Z,18.4
2019-06-27T04:02:17.741Z,18.4
2019-06-27T04:03:19.116Z,18.4
2019-06-27T04:04:20.494Z,18.5
2019-06-27T04:05:21.870Z,18.5
2019-06-27T04:06:23.246Z,18.5
2019-06-27T04:07:24.622Z,18.3
2019-06-27T04:08:25.996Z,18.4
2019-06-27T04:09:27.369Z,18.4
2019-06-27T04:10:28.744Z,18.4
2019-06-27T04:11:30.121Z,18.4
2019-06-27T04:12:31.502Z,18.4
2019-06-27T04:13:32.875Z,18.4
2019-06-27T04:14:34.247Z,18.4
2019-06-27T04:15:35.624Z,18.4
2019-06-27T04:16:36.997Z,18.4
2019-06-27T04:17:38.376Z,18.3
2019-06-27T04:18:39.752Z,18.4
2019-06-27T04:19:41.124Z,18.5
2019-06-27T04:20:42.502Z,18.4
2019-06-27T04:21:43.878Z,18.4
2019-06-27T04:22:45.271Z,18.4
2019-06-27T04:23:46.628Z,18.4
2019-06-27T04:24:48.006Z,18.5
2019-06-27T04:25:49.386Z,18.5
2019-06-27T04:26:50.761Z,18.5
2019-06-27T04:27:52.141Z,18.5
2019-06-27T04:28:53.517Z,18.5
2019-06-27T04:29:54.887Z,18.5
2019-06-27T04:30:56.271Z,18.5
2019-06-27T04:31:57.647Z,18.4
2019-06-27T04:32:59.023Z,18.5
2019-06-27T04:34:00.460Z,18.5
2019-06-27T04:35:01.778Z,18.5
2019-06-27T04:36:03.154Z,18.5
2019-06-27T04:37:04.537Z,18.5
2019-06-27T04:38:05.906Z,18.6
2019-06-27T04:39:07.282Z,18.7
2019-06-27T04:40:08.667Z,18.6
2019-06-27T04:41:10.131Z,18.6
2019-06-27T04:42:11.449Z,18.7
2019-06-27T04:43:12.813Z,18.7
2019-06-27T04:44:14.192Z,18.6
2019-06-27T04:45:15.573Z,18.6
2019-06-27T04:46:16.948Z,18.7
2019-06-27T04:47:18.341Z,18.8
2019-06-27T04:48:19.714Z,18.8
2019-06-27T04:49:21.093Z,18.8
2019-06-27T04:50:22.479Z,18.9
2019-06-27T04:51:23.845Z,18.9
2019-06-27T04:52:25.224Z,18.9
2019-06-27T04:53:26.599Z,19.0
2019-06-27T04:54:27.980Z,18.9
2019-06-27T04:55:29.406Z,19.0
2019-06-27T04:56:30.772Z,19.0
2019-06-27T04:57:32.144Z,19.1
2019-06-27T04:58:33.525Z,19.1
2019-06-27T04:59:51.513Z,19.2
2019-06-27T05:00:36.235Z,19.3
2019-06-27T05:01:37.615Z,19.2
2019-06-27T05:02:39.011Z,19.3
2019-06-27T05:03:40.371Z,19.4
2019-06-27T05:04:41.746Z,19.4
2019-06-27T05:05:43.124Z,19.3
2019-06-27T05:06:44.499Z,19.4
2019-06-27T05:07:45.881Z,19.4
2019-06-27T05:08:47.256Z,19.4
2019-06-27T05:09:48.641Z,19.4
2019-06-27T05:10:50.018Z,19.4
2019-06-27T05:11:51.412Z,19.2
2019-06-27T05:12:52.842Z,19.4
2019-06-27T05:13:54.191Z,19.4
2019-06-27T05:14:55.571Z,19.4
2019-06-27T05:15:56.946Z,19.4
2019-06-27T05:16:58.338Z,19.4
2019-06-27T05:17:59.701Z,19.5
2019-06-27T05:19:01.084Z,19.5
2019-06-27T05:20:03.400Z,19.6
2019-06-27T05:21:03.797Z,19.5
2019-06-27T05:22:05.172Z,19.6
2019-06-27T05:23:06.555Z,19.5
2019-06-27T05:24:07.937Z,19.6
2019-06-27T05:25:09.319Z,19.6
2019-06-27T05:26:10.688Z,19.6
2019-06-27T05:27:12.064Z,19.6
2019-06-27T05:28:13.439Z,19.6
2019-06-27T05:29:14.820Z,19.7
2019-06-27T05:30:16.195Z,19.6
2019-06-27T05:31:17.573Z,19.7
2019-06-27T05:32:18.952Z,19.7
2019-06-27T05:33:20.350Z,19.7
2019-06-27T05:34:21.716Z,19.7
2019-06-27T05:35:23.093Z,19.7
2019-06-27T05:36:24.484Z,19.8
2019-06-27T05:37:25.846Z,19.8
2019-06-27T05:38:27.227Z,19.9
2019-06-27T05:39:28.605Z,20.0
2019-06-27T05:40:29.982Z,20.0
2019-06-27T05:41:31.356Z,20.0
2019-06-27T05:42:32.733Z,19.9
2019-06-27T05:43:34.114Z,19.9
2019-06-27T05:44:35.501Z,19.8
2019-06-27T05:45:36.864Z,19.8
2019-06-27T05:46:38.242Z,20.0
2019-06-27T05:47:39.619Z,20.2
2019-06-27T05:48:40.991Z,20.2
2019-06-27T05:49:42.367Z,20.5
2019-06-27T05:50:43.744Z,20.6
2019-06-27T05:51:45.128Z,20.7
2019-06-27T05:52:46.499Z,20.8
2019-06-27T05:53:47.879Z,20.6
2019-06-27T05:54:49.252Z,20.7
2019-06-27T05:55:50.632Z,20.4
2019-06-27T05:56:52.006Z,20.4
2019-06-27T05:57:53.381Z,20.4
2019-06-27T05:58:54.756Z,20.5
2019-06-27T05:59:56.137Z,20.3
2019-06-27T06:00:57.518Z,20.4
2019-06-27T06:01:58.894Z,20.5
2019-06-27T06:03:00.283Z,20.5
2019-06-27T06:04:01.660Z,20.6
2019-06-27T06:05:03.058Z,20.6
2019-06-27T06:06:04.417Z,20.6
2019-06-27T06:07:05.796Z,20.6
2019-06-27T06:08:07.178Z,20.7
2019-06-27T06:09:08.559Z,20.9
2019-06-27T06:10:09.936Z,21.3
2019-06-27T06:11:11.311Z,21.9
2019-06-27T06:12:12.691Z,22.4
2019-06-27T06:13:14.075Z,22.8
2019-06-27T06:14:15.453Z,23.2
2019-06-27T06:15:16.835Z,23.5
2019-06-27T06:16:18.215Z,23.7
2019-06-27T06:17:19.595Z,24.0
2019-06-27T06:18:20.972Z,24.0
2019-06-27T06:19:22.355Z,24.1
2019-06-27T06:20:23.733Z,24.3
2019-06-27T06:21:25.131Z,24.1
2019-06-27T06:22:26.503Z,24.1
2019-06-27T06:23:27.879Z,24.2
2019-06-27T06:24:29.259Z,24.3
2019-06-27T06:25:30.639Z,24.6
2019-06-27T06:26:32.019Z,24.8
2019-06-27T06:27:33.402Z,25.2
2019-06-27T06:28:34.789Z,25.1
2019-06-27T06:29:36.168Z,25.1
2019-06-27T06:30:44.463Z,24.9
2019-06-27T06:31:38.890Z,24.8
2019-06-27T06:32:40.272Z,25.2
2019-06-27T06:33:41.655Z,25.3
2019-06-27T06:34:43.033Z,25.3
2019-06-27T06:35:44.421Z,25.3
2019-06-27T06:36:45.808Z,25.2
2019-06-27T06:37:47.253Z,25.3
2019-06-27T06:38:48.573Z,25.3
2019-06-27T06:39:49.957Z,25.5
2019-06-27T06:40:51.339Z,25.9
2019-06-27T06:41:52.745Z,26.0
2019-06-27T06:42:56.975Z,26.0
2019-06-27T06:43:55.456Z,25.9
2019-06-27T06:44:56.836Z,25.9
2019-06-27T06:45:58.225Z,25.6
2019-06-27T06:46:59.651Z,25.8
2019-06-27T06:48:01.047Z,26.1
2019-06-27T06:49:02.430Z,25.8
2019-06-27T06:50:03.812Z,25.8
2019-06-27T06:51:05.199Z,25.7
2019-06-27T06:52:06.588Z,25.5
2019-06-27T06:53:07.985Z,25.2
2019-06-27T06:54:09.359Z,25.2
2019-06-27T06:55:10.732Z,25.3
2019-06-27T06:56:12.119Z,25.7
2019-06-27T06:57:13.501Z,25.7
2019-06-27T06:58:14.885Z,26.1
2019-06-27T06:59:16.266Z,26.5
2019-06-27T07:00:17.653Z,26.5
2019-06-27T07:01:19.034Z,26.5
2019-06-27T07:02:20.419Z,26.5
2019-06-27T07:03:21.806Z,26.6
2019-06-27T07:04:23.192Z,26.4
2019-06-27T07:05:24.575Z,26.5
2019-06-27T07:06:25.965Z,26.5
2019-06-27T07:07:27.343Z,26.6
2019-06-27T07:08:28.754Z,26.4
2019-06-27T07:09:30.111Z,26.4
2019-06-27T07:10:31.493Z,26.5
2019-06-27T07:11:32.881Z,26.5
2019-06-27T07:12:34.266Z,26.9
2019-06-27T07:13:35.650Z,27.0
2019-06-27T07:14:37.035Z,27.2
2019-06-27T07:15:38.423Z,27.3
2019-06-27T07:16:39.805Z,27.3
2019-06-27T07:17:41.187Z,27.0
2019-06-27T07:18:42.574Z,27.0
2019-06-27T07:19:43.958Z,27.4
2019-06-27T07:20:45.343Z,27.4
2019-06-27T07:21:46.726Z,27.6
2019-06-27T07:22:48.148Z,27.7
2019-06-27T07:23:49.679Z,27.4
2019-06-27T07:24:50.847Z,27.6
2019-06-27T07:25:52.233Z,27.7
2019-06-27T07:26:53.632Z,27.4
2019-06-27T07:27:55.005Z,27.3
2019-06-27T07:28:56.388Z,27.3
2019-06-27T07:29:57.770Z,27.2
2019-06-27T07:30:59.155Z,27.0
2019-06-27T07:32:00.539Z,27.0
2019-06-27T07:33:01.933Z,27.3
2019-06-27T07:34:03.314Z,27.1
2019-06-27T07:35:04.698Z,27.2
2019-06-27T07:36:06.080Z,27.5
2019-06-27T07:37:07.465Z,27.6
2019-06-27T07:38:08.848Z,27.8
2019-06-27T07:39:10.242Z,27.7
2019-06-27T07:40:11.621Z,27.6
2019-06-27T07:41:13.008Z,27.6
2019-06-27T07:42:14.394Z,27.2
2019-06-27T07:43:15.778Z,27.4
2019-06-27T07:44:20.065Z,27.6
2019-06-27T07:45:18.512Z,27.6
2019-06-27T07:46:25.268Z,27.8
2019-06-27T07:47:21.242Z,28.0
2019-06-27T07:48:22.630Z,28.1
2019-06-27T07:49:24.014Z,28.3
2019-06-27T07:50:25.405Z,28.4
2019-06-27T07:51:27.064Z,28.6
2019-06-27T07:52:28.168Z,28.5
2019-06-27T07:53:29.556Z,28.6
2019-06-27T07:54:30.949Z,28.8
2019-06-27T07:55:32.326Z,28.9
2019-06-27T07:56:33.710Z,29.1
2019-06-27T07:57:35.097Z,28.8
2019-06-27T07:58:36.496Z,28.9
2019-06-27T07:59:37.862Z,29.3
2019-06-27T08:00:39.250Z,29.2
2019-06-27T08:01:40.637Z,29.3
2019-06-27T08:02:42.025Z,29.4
2019-06-27T08:03:43.404Z,29.7
2019-06-27T08:04:44.791Z,29.3
2019-06-27T08:05:46.178Z,29.4
2019-06-27T08:06:47.565Z,29.5
2019-06-27T08:07:48.971Z,29.6
2019-06-27T08:08:50.383Z,29.6
2019-06-27T08:09:51.755Z,29.6
2019-06-27T08:10:53.142Z,29.9
2019-06-27T08:11:54.518Z,29.9
2019-06-27T08:12:55.907Z,29.9
2019-06-27T08:13:57.289Z,29.6
2019-06-27T08:14:58.676Z,29.6
2019-06-27T08:16:00.059Z,29.7
2019-06-27T08:17:01.444Z,29.6
2019-06-27T08:18:02.831Z,29.4
2019-06-27T08:19:04.213Z,29.1
2019-06-27T08:20:05.600Z,28.8
2019-06-27T08:21:06.983Z,28.7
2019-06-27T08:22:08.369Z,29.1
2019-06-27T08:23:09.763Z,29.4
2019-06-27T08:24:11.147Z,29.0
2019-06-27T08:25:12.531Z,29.3
2019-06-27T08:26:13.917Z,29.0
2019-06-27T08:27:15.304Z,28.7
2019-06-27T08:28:16.692Z,28.7
2019-06-27T08:29:18.076Z,28.6
2019-06-27T08:30:19.463Z,28.4
2019-06-27T08:31:20.850Z,29.0
2019-06-27T08:32:22.231Z,29.1
2019-06-27T08:33:23.617Z,29.4
2019-06-27T08:34:25.014Z,29.4
2019-06-27T08:35:26.385Z,29.4
2019-06-27T08:36:27.769Z,29.7
2019-06-27T08:37:29.156Z,29.8
2019-06-27T08:38:30.557Z,29.9
2019-06-27T08:39:31.930Z,30.0
2019-06-27T08:40:33.312Z,29.9
2019-06-27T08:41:34.702Z,30.1
2019-06-27T08:42:36.089Z,29.8
2019-06-27T08:43:37.477Z,29.6
2019-06-27T08:44:38.873Z,29.7
2019-06-27T08:45:40.257Z,29.6
2019-06-27T08:46:41.639Z,29.9
2019-06-27T08:47:43.027Z,29.7
2019-06-27T08:48:44.410Z,29.6
2019-06-27T08:49:45.795Z,30.0
2019-06-27T08:50:47.179Z,29.9
2019-06-27T08:51:48.630Z,30.1
2019-06-27T08:52:49.955Z,29.8
2019-06-27T08:53:51.338Z,30.2
2019-06-27T08:54:52.724Z,30.3
2019-06-27T08:55:54.115Z,30.1
2019-06-27T08:56:55.490Z,29.8
2019-06-27T08:57:56.877Z,29.8
2019-06-27T08:58:58.264Z,29.7
2019-06-27T08:59:59.652Z,30.2
2019-06-27T09:01:01.043Z,30.4
2019-06-27T09:02:08.554Z,30.4
2019-06-27T09:03:03.785Z,30.2
2019-06-27T09:04:05.180Z,30.1
2019-06-27T09:05:06.547Z,30.4
2019-06-27T09:06:07.943Z,30.5
2019-06-27T09:07:09.329Z,30.9
2019-06-27T09:08:10.718Z,31.2
2019-06-27T09:09:12.094Z,31.3
2019-06-27T09:10:13.485Z,31.4
2019-06-27T09:11:14.865Z,31.5
2019-06-27T09:12:16.253Z,31.3
2019-06-27T09:13:17.642Z,31.3
2019-06-27T09:14:19.029Z,31.4
2019-06-27T09:15:20.426Z,31.3
2019-06-27T09:16:21.800Z,31.6
2019-06-27T09:17:23.195Z,32.0
2019-06-27T09:18:24.583Z,31.9
2019-06-27T09:19:25.979Z,32.2
2019-06-27T09:20:27.381Z,32.4
2019-06-27T09:21:28.743Z,32.4
2019-06-27T09:22:30.128Z,32.3
2019-06-27T09:23:31.516Z,32.1
2019-06-27T09:24:32.900Z,31.3
2019-06-27T09:25:34.290Z,31.1
2019-06-27T09:26:35.679Z,31.4
2019-06-27T09:27:37.210Z,31.7
2019-06-27T09:28:38.439Z,31.7
2019-06-27T09:29:39.806Z,32.1
2019-06-27T09:30:41.197Z,32.0
2019-06-27T09:31:42.598Z,31.5
2019-06-27T09:32:43.989Z,32.1
2019-06-27T09:33:45.428Z,32.0
2019-06-27T09:34:46.779Z,31.3
2019-06-27T09:35:48.171Z,31.4
2019-06-27T09:36:49.557Z,30.8
2019-06-27T09:37:50.947Z,31.2
2019-06-27T09:38:52.336Z,31.4
2019-06-27T09:39:53.725Z,31.8
2019-06-27T09:40:55.119Z,31.7
2019-06-27T09:41:56.505Z,31.9
2019-06-27T09:42:57.896Z,32.3
2019-06-27T09:43:59.299Z,32.7
2019-06-27T09:45:00.675Z,33.0
2019-06-27T09:46:02.065Z,33.0
2019-06-27T09:47:03.459Z,32.8
2019-06-27T09:48:04.851Z,32.7
2019-06-27T09:49:06.244Z,32.7
2019-06-27T09:50:07.639Z,32.6
2019-06-27T09:51:09.030Z,32.8
2019-06-27T09:52:10.421Z,33.0
2019-06-27T09:53:11.807Z,32.9
2019-06-27T09:54:13.198Z,32.9
2019-06-27T09:55:14.594Z,33.1
2019-06-27T09:56:15.982Z,33.1
2019-06-27T09:57:17.374Z,32.7
2019-06-27T09:58:18.762Z,32.5
2019-06-27T09:59:20.156Z,32.7
2019-06-27T10:00:21.544Z,32.4
2019-06-27T10:01:22.938Z,32.6
2019-06-27T10:02:37.304Z,32.4
2019-06-27T10:03:25.683Z,32.5
2019-06-27T10:04:27.038Z,32.9
2019-06-27T10:05:28.422Z,33.3
2019-06-27T10:06:29.813Z,33.0
2019-06-27T10:07:31.203Z,33.3
2019-06-27T10:08:32.595Z,33.1
2019-06-27T10:09:33.984Z,32.5
2019-06-27T10:10:35.378Z,33.0
2019-06-27T10:11:36.770Z,33.0
2019-06-27T10:12:42.887Z,33.5
2019-06-27T10:13:39.517Z,33.6
2019-06-27T10:14:40.907Z,33.6
2019-06-27T10:15:42.299Z,33.6
2019-06-27T10:16:43.693Z,33.7
2019-06-27T10:17:45.093Z,33.8
2019-06-27T10:18:46.477Z,33.9
2019-06-27T10:19:47.869Z,34.5
2019-06-27T10:20:49.259Z,34.2
2019-06-27T10:21:50.651Z,34.2
2019-06-27T10:22:52.045Z,34.0
2019-06-27T10:23:53.438Z,33.7
2019-06-27T10:24:54.831Z,33.9
2019-06-27T10:25:56.225Z,34.2
2019-06-27T10:26:57.617Z,34.4
2019-06-27T10:27:59.005Z,34.9
2019-06-27T10:29:00.405Z,35.1
2019-06-27T10:30:01.791Z,35.1
2019-06-27T10:31:03.184Z,34.9
2019-06-27T10:32:04.581Z,35.0
2019-06-27T10:33:05.976Z,35.1
2019-06-27T10:34:07.365Z,34.9
2019-06-27T10:35:08.756Z,35.2
2019-06-27T10:36:10.151Z,35.3
2019-06-27T10:37:11.543Z,35.6
2019-06-27T10:38:12.934Z,35.6
2019-06-27T10:39:14.332Z,35.5
2019-06-27T10:40:15.723Z,35.9
2019-06-27T10:41:17.113Z,36.0
2019-06-27T10:42:18.512Z,35.8
2019-06-27T10:43:19.903Z,35.8
2019-06-27T10:44:21.310Z,35.3
2019-06-27T10:45:22.707Z,35.3
2019-06-27T10:46:24.103Z,35.5
2019-06-27T10:47:25.497Z,35.6
2019-06-27T10:48:26.891Z,35.8
2019-06-27T10:49:28.303Z,35.1
2019-06-27T10:50:29.745Z,35.1
2019-06-27T10:51:31.201Z,35.0
2019-06-27T10:52:32.468Z,35.1
2019-06-27T10:53:33.863Z,35.3
2019-06-27T10:54:35.260Z,35.2
2019-06-27T10:55:36.664Z,35.4
2019-06-27T10:56:39.989Z,35.5
2019-06-27T10:57:39.622Z,35.4
2019-06-27T10:58:41.020Z,35.4
2019-06-27T10:59:42.584Z,35.3
2019-06-27T11:00:43.979Z,35.6
2019-06-27T11:01:45.374Z,35.5
2019-06-27T11:02:46.767Z,35.9
2019-06-27T11:03:48.161Z,35.4
2019-06-27T11:04:49.555Z,35.3
2019-06-27T11:05:50.952Z,35.7
2019-06-27T11:06:52.344Z,35.5
2019-06-27T11:07:53.741Z,35.9
2019-06-27T11:08:55.136Z,36.0
2019-06-27T11:09:56.530Z,36.1
2019-06-27T11:10:57.924Z,36.1
2019-06-27T11:11:59.322Z,35.7
2019-06-27T11:13:00.716Z,35.5
2019-06-27T11:14:02.109Z,35.8
2019-06-27T11:15:03.507Z,35.8
2019-06-27T11:16:04.904Z,36.2
2019-06-27T11:17:06.298Z,36.5
2019-06-27T11:18:07.700Z,36.2
2019-06-27T11:19:09.107Z,35.9
2019-06-27T11:20:10.488Z,35.1
2019-06-27T11:21:13.875Z,35.7
2019-06-27T11:22:13.249Z,35.8
2019-06-27T11:23:14.642Z,35.4
2019-06-27T11:24:16.031Z,35.0
2019-06-27T11:25:17.429Z,35.4
2019-06-27T11:26:18.826Z,35.7
2019-06-27T11:27:20.230Z,35.8
2019-06-27T11:28:21.616Z,35.9
2019-06-27T11:29:23.013Z,35.7
2019-06-27T11:30:24.410Z,35.8
2019-06-27T11:31:25.813Z,35.7
2019-06-27T11:32:27.198Z,35.7
2019-06-27T11:33:32.386Z,35.9
2019-06-27T11:34:29.950Z,36.1
2019-06-27T11:35:31.347Z,35.7
2019-06-27T11:36:32.744Z,35.5
2019-06-27T11:37:34.138Z,35.5
2019-06-27T11:38:35.534Z,35.3
2019-06-27T11:39:36.928Z,35.3
2019-06-27T11:40:38.323Z,35.8
2019-06-27T11:41:39.721Z,36.0
2019-06-27T11:42:41.113Z,35.9
2019-06-27T11:43:42.508Z,35.9
2019-06-27T11:44:43.906Z,36.2
2019-06-27T11:45:45.302Z,36.3
2019-06-27T11:46:46.700Z,36.4
2019-06-27T11:47:48.094Z,36.2
2019-06-27T11:48:49.492Z,36.4
2019-06-27T11:49:50.887Z,36.3
2019-06-27T11:50:52.366Z,36.3
2019-06-27T11:51:53.646Z,36.3
2019-06-27T11:52:55.043Z,36.0
2019-06-27T11:53:56.438Z,35.7
2019-06-27T11:54:57.838Z,35.5
2019-06-27T11:55:59.331Z,36.0
2019-06-27T11:57:00.725Z,36.1
2019-06-27T11:58:02.125Z,35.9
2019-06-27T11:59:03.517Z,35.8
2019-06-27T12:00:04.918Z,35.5
2019-06-27T12:01:06.376Z,35.4
2019-06-27T12:02:07.703Z,35.4
2019-06-27T12:03:09.098Z,35.6
2019-06-27T12:04:10.494Z,35.7
2019-06-27T12:05:11.893Z,35.8
2019-06-27T12:06:13.279Z,36.0
2019-06-27T12:07:14.683Z,36.2
2019-06-27T12:08:16.103Z,36.4
2019-06-27T12:09:17.472Z,36.2
2019-06-27T12:10:18.874Z,36.4
2019-06-27T12:11:20.265Z,36.3
2019-06-27T12:12:21.662Z,36.1
2019-06-27T12:13:23.058Z,35.8
2019-06-27T12:14:24.456Z,36.1
2019-06-27T12:15:25.887Z,36.1
2019-06-27T12:16:27.241Z,36.4
2019-06-27T12:17:28.636Z,35.9
2019-06-27T12:18:30.047Z,36.1
2019-06-27T12:19:31.430Z,36.3
2019-06-27T12:20:32.823Z,36.0
2019-06-27T12:21:34.220Z,36.2
2019-06-27T12:22:35.612Z,36.0
2019-06-27T12:23:37.006Z,36.3
2019-06-27T12:24:38.398Z,36.6
2019-06-27T12:25:39.795Z,36.6
2019-06-27T12:26:41.192Z,36.6
2019-06-27T12:27:42.595Z,36.7
2019-06-27T12:28:43.980Z,37.0
2019-06-27T12:29:45.373Z,36.9
2019-06-27T12:30:46.774Z,37.2
2019-06-27T12:31:51.345Z,37.3
2019-06-27T12:32:52.453Z,37.3
2019-06-27T12:34:05.701Z,37.3
2019-06-27T12:34:52.236Z,37.4
2019-06-27T12:35:53.634Z,37.5
2019-06-27T12:36:55.028Z,37.5
2019-06-27T12:37:56.419Z,37.4
2019-06-27T12:38:57.815Z,36.9
2019-06-27T12:39:59.209Z,36.7
2019-06-27T12:41:00.609Z,36.1
2019-06-27T12:42:02.009Z,36.5
2019-06-27T12:43:03.408Z,37.0
2019-06-27T12:44:04.796Z,36.9
2019-06-27T12:45:06.188Z,36.7
2019-06-27T12:46:07.584Z,37.0
2019-06-27T12:47:08.980Z,37.3
2019-06-27T12:48:10.387Z,37.4
2019-06-27T12:49:11.772Z,37.4
2019-06-27T12:50:13.171Z,36.5
2019-06-27T12:51:14.562Z,36.7
2019-06-27T12:52:15.964Z,36.8
2019-06-27T12:53:17.363Z,36.9
2019-06-27T12:54:18.772Z,36.8
2019-06-27T12:55:20.188Z,35.9
2019-06-27T12:56:21.571Z,35.8
2019-06-27T12:57:22.956Z,35.7
2019-06-27T12:58:24.353Z,35.7
2019-06-27T12:59:25.753Z,36.1
2019-06-27T13:00:27.145Z,36.5
2019-06-27T13:01:28.540Z,36.7
2019-06-27T13:02:29.936Z,36.9
2019-06-27T13:03:31.389Z,37.0
2019-06-27T13:04:32.728Z,37.0
2019-06-27T13:05:34.125Z,37.1
2019-06-27T13:06:35.524Z,37.0
2019-06-27T13:07:36.913Z,37.0
2019-06-27T13:08:38.310Z,37.3
2019-06-27T13:09:39.710Z,37.5
2019-06-27T13:10:41.113Z,37.7
2019-06-27T13:11:42.660Z,36.9
2019-06-27T13:12:44.058Z,37.5
2019-06-27T13:13:45.446Z,37.0
2019-06-27T13:14:46.841Z,37.1
2019-06-27T13:15:48.237Z,37.3
2019-06-27T13:16:49.683Z,37.6
2019-06-27T13:17:51.034Z,37.6
2019-06-27T13:18:52.429Z,37.5
2019-06-27T13:19:53.863Z,37.8
2019-06-27T13:20:58.236Z,37.5
2019-06-27T13:21:56.583Z,37.5
2019-06-27T13:22:57.980Z,37.5
2019-06-27T13:23:59.407Z,37.6
2019-06-27T13:25:00.802Z,37.7
2019-06-27T13:26:02.203Z,37.6
2019-06-27T13:27:03.593Z,37.3
2019-06-27T13:28:04.986Z,37.5
2019-06-27T13:29:06.386Z,37.6
2019-06-27T13:30:07.968Z,37.8
2019-06-27T13:31:09.157Z,37.6
2019-06-27T13:32:10.568Z,37.6
2019-06-27T13:33:12.001Z,37.6
2019-06-27T13:34:13.412Z,37.6
2019-06-27T13:35:14.763Z,37.4
2019-06-27T13:36:16.159Z,37.6
2019-06-27T13:37:17.558Z,37.4